createdAt,value
2022-08-03T00:08:48.868Z,0.00
2022-08-03T00:18:55.086Z,0.00
2022-08-03T00:29:01.512Z,0.00
2022-08-03T00:39:07.705Z,0.00
2022-08-03T00:49:13.887Z,0.00
2022-08-03T00:59:20.210Z,0.00
2022-08-03T01:09:26.510Z,0.00
2022-08-03T01:19:32.947Z,0.00
2022-08-03T01:29:39.156Z,0.00
2022-08-03T01:39:45.799Z,0.00
2022-08-03T01:49:51.935Z,0.00
2022-08-03T01:59:58.311Z,0.00
2022-08-03T02:10:04.610Z,0.00
2022-08-03T02:20:10.687Z,0.00
2022-08-03T02:30:16.637Z,0.00
2022-08-03T02:40:22.903Z,0.00
2022-08-03T02:50:28.803Z,0.00
2022-08-03T03:00:34.942Z,0.00
2022-08-03T03:10:41.014Z,0.00
2022-08-03T03:20:46.976Z,8.00
2022-08-03T03:30:53.605Z,24.00
2022-08-03T03:41:00.012Z,80.00
2022-08-03T03:51:05.925Z,176.00
2022-08-03T04:01:12.457Z,308.00
2022-08-03T04:11:18.957Z,452.00
2022-08-03T04:21:26.347Z,588.00
2022-08-03T04:31:32.241Z,712.00
2022-08-03T04:42:07.644Z,812.00
2022-08-03T04:51:51.156Z,908.00
2022-08-03T05:01:58.560Z,992.00
2022-08-03T05:12:06.293Z,1068.00
2022-08-03T05:22:12.974Z,1160.00
2022-08-03T05:32:19.838Z,1224.00
2022-08-03T05:42:26.960Z,1288.00
2022-08-03T05:52:36.318Z,1344.00
2022-08-03T06:02:42.622Z,1400.00
2022-08-03T06:12:50.612Z,1456.00
2022-08-03T06:23:00.133Z,1508.00
2022-08-03T06:33:08.215Z,1568.00
2022-08-03T06:43:14.035Z,1620.00
2022-08-03T06:53:22.276Z,1676.00
2022-08-03T07:03:28.045Z,1736.00
2022-08-03T07:13:33.547Z,1816.00
2022-08-03T07:23:39.307Z,1900.00
2022-08-03T07:33:45.371Z,1992.00
2022-08-03T07:43:51.253Z,2100.00
2022-08-03T07:53:57.214Z,2232.00
2022-08-03T08:04:03.738Z,2400.00
2022-08-03T08:14:09.567Z,2560.00
2022-08-03T08:24:18.332Z,2732.00
2022-08-03T08:34:26.676Z,2720.00
2022-08-03T08:44:32.175Z,3240.00
2022-08-03T08:54:37.998Z,3380.00
2022-08-03T09:04:43.780Z,3456.00
2022-08-03T09:15:07.430Z,3628.00
2022-08-03T09:25:22.661Z,3832.00
2022-08-03T09:35:11.214Z,3824.00
2022-08-03T09:45:16.783Z,4032.00
2022-08-03T09:56:32.901Z,4308.00
2022-08-03T10:05:33.932Z,4840.00
2022-08-03T10:16:22.945Z,9588.00
2022-08-03T10:25:50.763Z,57344.00
2022-08-03T10:35:56.945Z,55072.00
2022-08-03T10:46:04.549Z,51456.00
2022-08-03T10:56:14.587Z,50720.00
2022-08-03T11:06:29.252Z,48832.00
2022-08-03T11:18:14.567Z,46400.00
2022-08-03T11:28:22.105Z,44128.00
2022-08-03T11:38:32.433Z,40864.00
2022-08-03T11:48:40.682Z,36992.00
2022-08-03T11:59:17.465Z,33568.00
2022-08-03T12:08:59.951Z,28800.00
2022-08-03T12:19:06.418Z,11660.00
2022-08-03T12:29:14.027Z,12456.00
2022-08-03T12:39:21.062Z,13264.00
2022-08-03T12:49:28.183Z,14252.00
2022-08-03T12:59:41.231Z,14884.00
2022-08-03T13:09:46.789Z,15212.00
2022-08-03T13:19:54.538Z,15696.00
2022-08-03T13:30:00.181Z,17152.00
2022-08-03T13:40:02.366Z,11376.00
2022-08-03T13:50:08.014Z,10832.00
2022-08-03T14:00:27.413Z,12292.00
2022-08-03T14:10:27.440Z,11664.00
2022-08-03T14:20:37.972Z,10000.00
2022-08-03T14:30:46.180Z,9536.00
2022-08-03T14:40:52.994Z,8948.00
2022-08-03T14:50:59.247Z,8204.00
2022-08-03T15:02:05.419Z,7424.00
2022-08-03T15:11:18.225Z,6264.00
2022-08-03T15:21:46.155Z,5708.00
2022-08-03T15:31:35.459Z,4988.00
2022-08-03T15:41:43.531Z,4004.00
2022-08-03T15:51:49.495Z,3376.00
2022-08-03T16:01:56.478Z,3312.00
2022-08-03T16:12:03.745Z,3128.00
2022-08-03T16:22:09.572Z,2788.00
2022-08-03T16:32:15.893Z,2832.00
2022-08-03T16:42:21.586Z,2552.00
2022-08-03T16:52:29.737Z,2132.00
2022-08-03T17:02:36.235Z,1920.00
2022-08-03T17:12:42.778Z,1768.00
2022-08-03T17:22:49.205Z,1616.00
2022-08-03T17:32:57.563Z,1464.00
2022-08-03T17:44:08.174Z,1272.00
2022-08-03T17:53:24.330Z,1080.00
2022-08-03T18:03:27.499Z,940.00
2022-08-03T18:13:35.706Z,788.00
2022-08-03T18:23:44.815Z,636.00
2022-08-03T18:34:16.230Z,444.00
2022-08-03T18:44:46.476Z,268.00
2022-08-03T18:54:51.727Z,124.00
2022-08-03T19:04:34.139Z,48.00
2022-08-03T19:14:41.716Z,12.00
2022-08-03T19:24:48.777Z,4.00
2022-08-03T19:34:55.326Z,0.00
2022-08-03T19:45:02.468Z,0.00
2022-08-03T19:55:15.362Z,0.00
2022-08-03T20:05:21.094Z,0.00
2022-08-03T20:15:31.790Z,0.00
2022-08-03T20:25:48.461Z,0.00
2022-08-03T20:35:50.016Z,0.00
2022-08-03T20:45:59.578Z,0.00
2022-08-03T20:56:08.750Z,0.00
2022-08-03T21:06:14.858Z,0.00
2022-08-03T21:16:23.460Z,0.00
2022-08-03T21:26:29.760Z,0.00
2022-08-03T21:36:37.189Z,0.00
2022-08-03T21:46:43.072Z,0.00
2022-08-03T21:56:50.714Z,0.00
2022-08-03T22:06:56.734Z,0.00
2022-08-03T22:17:07.112Z,0.00
2022-08-03T22:27:12.833Z,0.00
2022-08-03T22:38:37.718Z,0.00
2022-08-03T22:48:43.114Z,0.00
2022-08-03T22:58:51.023Z,0.00
2022-08-03T23:08:57.056Z,0.00
2022-08-03T23:19:17.125Z,0.00
2022-08-03T23:29:16.082Z,0.00
2022-08-03T23:39:24.098Z,0.00
2022-08-03T23:49:30.538Z,0.00
2022-08-03T23:59:36.723Z,0.00
